Time;durP1;ratioP1;P1;durP2;ratioP2;P2;SDS_P1;SDS_P2;PMS_P1;PMS_P2;Temp;Humidity;BMP_temperature;BMP_pressure;BME280_temperature;BME280_humidity;BME280_pressure;Samples;Min_cycle;Max_cycle;Signal;HPM_P1;HPM_P2
2024/01/16 00:00:24;;;;;;;6.63;1.85;;;;;;;-0.95;100.00;99974.28;5080635;28;20052;-71
2024/01/16 00:02:50;;;;;;;6.05;1.30;;;;;;;-0.98;100.00;99975.13;5076840;28;20131;-72
2024/01/16 00:05:17;;;;;;;7.75;1.70;;;;;;;-0.97;100.00;99976.84;5071622;28;20048;-71
2024/01/16 00:07:44;;;;;;;2.92;1.20;;;;;;;-0.98;100.00;99974.28;5076384;28;20109;-71
2024/01/16 00:10:10;;;;;;;2.55;1.27;;;;;;;-1.01;100.00;99959.72;5075900;28;20355;-72
2024/01/16 00:12:37;;;;;;;4.50;1.30;;;;;;;-1.02;100.00;99963.16;5069822;28;20406;-71
2024/01/16 00:15:05;;;;;;;6.95;1.50;;;;;;;-0.94;100.00;99964.84;5075831;28;20044;-71
2024/01/16 00:17:32;;;;;;;3.55;1.40;;;;;;;-0.96;100.00;99960.56;5078623;28;20135;-69
2024/01/16 00:20:00;;;;;;;3.78;1.33;;;;;;;-0.85;100.00;99975.97;5071487;28;20057;-71
2024/01/16 00:22:27;;;;;;;5.80;1.52;;;;;;;-1.00;100.00;99968.28;5082547;28;20045;-71
2024/01/16 00:24:54;;;;;;;5.35;1.40;;;;;;;-0.88;100.00;99970.81;5076992;28;20406;-71
2024/01/16 00:27:21;;;;;;;10.10;1.70;;;;;;;-0.98;100.00;99962.28;5071087;28;20048;-74
2024/01/16 00:29:47;;;;;;;3.42;1.30;;;;;;;-0.89;100.00;99951.09;5079589;28;20048;-71
2024/01/16 00:32:15;;;;;;;4.13;1.75;;;;;;;-0.89;100.00;99947.69;5069969;28;20545;-71
2024/01/16 00:34:43;;;;;;;6.18;1.48;;;;;;;-1.02;100.00;99923.75;5083713;28;20055;-71
2024/01/16 00:37:09;;;;;;;5.20;1.60;;;;;;;-0.73;100.00;99944.19;5075521;28;20078;-72
2024/01/16 00:39:36;;;;;;;3.85;1.45;;;;;;;-0.96;100.00;99927.16;5074520;28;20052;-71
2024/01/16 00:42:03;;;;;;;4.18;1.50;;;;;;;-0.72;100.00;99945.06;5075709;28;20048;-72
2024/01/16 00:44:30;;;;;;;5.00;1.30;;;;;;;-0.67;100.00;99940.78;5074843;28;20052;-71
2024/01/16 00:46:56;;;;;;;4.65;1.50;;;;;;;-0.77;100.00;99930.50;5076216;28;20052;-71
2024/01/16 00:49:23;;;;;;;4.13;1.60;;;;;;;-0.73;100.00;99927.91;5074311;28;20084;-71
2024/01/16 00:51:50;;;;;;;6.93;1.50;;;;;;;-0.63;100.00;99939.88;5075523;28;20111;-72
2024/01/16 00:54:16;;;;;;;9.15;2.38;;;;;;;-0.65;100.00;99927.03;5071782;28;20063;-71
2024/01/16 00:56:43;;;;;;;3.83;1.20;;;;;;;-0.72;100.00;99925.34;5070272;28;20056;-71
2024/01/16 00:59:10;;;;;;;3.42;1.75;;;;;;;-0.88;100.00;99895.44;5078548;28;20051;-72
2024/01/16 01:01:40;;;;;;;2.20;1.10;;;;;;;-0.64;100.00;99918.47;5075754;28;20473;-71
2024/01/16 01:04:06;;;;;;;5.95;1.60;;;;;;;-0.71;100.00;99923.63;5072069;28;20384;-71
2024/01/16 01:06:35;;;;;;;5.63;2.03;;;;;;;-0.63;100.00;99909.88;5078907;28;20139;-72
2024/01/16 01:09:02;;;;;;;3.20;1.35;;;;;;;-0.63;100.00;99916.75;5069017;28;20048;-72
2024/01/16 01:11:29;;;;;;;3.17;1.27;;;;;;;-0.72;100.00;99888.50;5061146;28;20510;-72
2024/01/16 01:13:56;;;;;;;4.47;1.30;;;;;;;-0.60;100.00;99917.56;5075989;28;20056;-72
2024/01/16 01:16:23;;;;;;;2.88;1.33;;;;;;;-0.67;100.00;99908.19;5067690;28;20048;-71
2024/01/16 01:18:49;;;;;;;4.28;1.58;;;;;;;-0.48;100.00;99913.22;5064887;28;20132;-72
2024/01/16 01:21:17;;;;;;;2.50;1.10;;;;;;;-0.61;100.00;99910.72;5073202;28;20044;-71
2024/01/16 01:23:43;;;;;;;2.70;1.25;;;;;;;-0.50;100.00;99907.25;5069860;28;20049;-72
2024/01/16 01:26:13;;;;;;;3.80;1.40;;;;;;;-0.57;100.00;99898.69;5058156;28;20143;-72
2024/01/16 01:28:41;;;;;;;4.10;1.45;;;;;;;-0.96;100.00;99867.19;5077214;28;20097;-72
2024/01/16 01:31:09;;;;;;;5.82;1.48;;;;;;;-0.70;100.00;99900.47;5068263;28;20054;-71
2024/01/16 01:33:36;;;;;;;3.67;1.40;;;;;;;-0.74;100.00;99901.38;5065398;28;20049;-72
2024/01/16 01:36:03;;;;;;;2.75;1.27;;;;;;;-0.92;100.00;99884.31;5070865;28;20056;-72
2024/01/16 01:38:30;;;;;;;1.85;1.15;;;;;;;-0.88;100.00;99896.28;5073303;28;20055;-72
2024/01/16 01:40:56;;;;;;;5.05;1.30;;;;;;;-0.90;100.00;99894.56;5079598;28;20130;-71
2024/01/16 01:43:25;;;;;;;3.63;1.30;;;;;;;-0.95;100.00;99886.91;5077809;28;20190;-71
2024/01/16 01:46:14;;;;;;;4.68;1.25;;;;;;;-0.96;100.00;99887.75;5072267;28;20052;-74
2024/01/16 01:48:41;;;;;;;3.13;1.20;;;;;;;-1.06;100.00;99891.19;5065807;28;20736;-72
2024/01/16 01:51:10;;;;;;;3.80;1.30;;;;;;;-1.04;100.00;99880.06;5074990;28;20134;-72
2024/01/16 01:53:37;;;;;;;7.47;1.50;;;;;;;-1.16;100.00;99869.84;5076426;28;20045;-71
2024/01/16 01:56:07;;;;;;;6.88;1.42;;;;;;;-1.17;100.00;99886.97;5075964;28;20056;-72
2024/01/16 01:58:34;;;;;;;2.40;1.52;;;;;;;-1.03;100.00;99878.34;5075803;28;20051;-72
2024/01/16 02:01:02;;;;;;;3.67;1.10;;;;;;;-1.10;100.00;99869.81;5061464;28;20444;-71
2024/01/16 02:03:30;;;;;;;2.95;1.40;;;;;;;-0.94;100.00;99872.31;5068010;28;20048;-71
2024/01/16 02:05:57;;;;;;;5.10;1.40;;;;;;;-0.86;100.00;99863.72;5060498;28;20504;-72
2024/01/16 02:08:24;;;;;;;3.30;1.42;;;;;;;-0.84;100.00;99856.84;5063207;28;20051;-71
2024/01/16 02:10:51;;;;;;;3.08;1.20;;;;;;;-0.86;100.00;99852.59;5060116;28;20073;-71
2024/01/16 02:13:22;;;;;;;2.08;1.15;;;;;;;-0.90;100.00;99845.75;5079018;28;20055;-72
2024/01/16 02:15:50;;;;;;;2.47;1.30;;;;;;;-0.90;100.00;99848.31;5056276;28;20105;-72
2024/01/16 02:18:17;;;;;;;4.05;1.23;;;;;;;-0.99;100.00;99842.38;5068694;28;20075;-72
2024/01/16 02:20:45;;;;;;;2.75;1.15;;;;;;;-1.05;100.00;99826.97;5080906;28;20083;-72
2024/01/16 02:23:14;;;;;;;3.30;1.20;;;;;;;-0.91;100.00;99836.34;5075218;28;20497;-72
2024/01/16 02:25:42;;;;;;;3.25;1.40;;;;;;;-1.01;100.00;99817.53;5072308;28;20518;-72
2024/01/16 02:28:08;;;;;;;6.28;1.45;;;;;;;-1.11;100.00;99818.47;5067482;28;20519;-71
2024/01/16 02:30:35;;;;;;;3.95;1.77;;;;;;;-1.38;100.00;99817.69;5067356;28;20057;-72
2024/01/16 02:33:03;;;;;;;3.15;1.33;;;;;;;-1.13;100.00;99818.47;5069550;28;20498;-72
2024/01/16 02:35:30;;;;;;;5.15;1.50;;;;;;;-1.16;100.00;99813.34;5068953;28;20163;-73
2024/01/16 02:37:57;;;;;;;2.67;1.27;;;;;;;-1.22;100.00;99813.34;5073136;28;20048;-72
2024/01/16 02:40:24;;;;;;;4.65;1.50;;;;;;;-1.40;100.00;99807.44;5075488;28;20338;-72
2024/01/16 02:42:50;;;;;;;3.60;1.40;;;;;;;-1.45;100.00;99811.75;5077230;28;20057;-72
2024/01/16 02:45:17;;;;;;;2.90;1.30;;;;;;;-1.39;100.00;99804.00;5061088;28;20516;-71
2024/01/16 02:47:44;;;;;;;6.93;1.50;;;;;;;-1.42;100.00;99806.56;5070674;28;20044;-71
2024/01/16 02:50:11;;;;;;;3.08;1.27;;;;;;;-1.39;100.00;99790.31;5074847;28;20075;-72
2024/01/16 02:52:37;;;;;;;4.53;1.25;;;;;;;-1.44;100.00;99792.88;5083564;28;20068;-72
2024/01/16 02:55:05;;;;;;;2.00;1.20;;;;;;;-1.35;100.00;99790.31;5076714;28;20432;-72
2024/01/16 02:57:31;;;;;;;2.83;1.30;;;;;;;-1.39;100.00;99791.16;5075061;28;20067;-72
2024/01/16 02:59:58;;;;;;;5.72;1.50;;;;;;;-1.44;100.00;99787.75;5079446;28;20040;-71
2024/01/16 03:02:25;;;;;;;3.05;1.33;;;;;;;-1.45;100.00;99783.50;5077980;28;20512;-71
2024/01/16 03:04:51;;;;;;;3.22;1.30;;;;;;;-1.50;100.00;99774.94;5078343;28;20082;-72
2024/01/16 03:07:18;;;;;;;2.47;1.35;;;;;;;-1.57;100.00;99774.13;5064917;28;20052;-71
2024/01/16 03:09:45;;;;;;;4.75;1.20;;;;;;;-1.44;100.00;99782.63;5073412;28;20047;-71
2024/01/16 03:12:12;;;;;;;3.38;1.65;;;;;;;-1.69;100.00;99768.19;5077591;28;20052;-72
2024/01/16 03:14:38;;;;;;;3.33;1.23;;;;;;;-1.54;100.00;99770.66;5078567;28;20047;-73
2024/01/16 03:17:06;;;;;;;2.58;1.40;;;;;;;-1.55;100.00;99766.41;5074966;28;20047;-72
2024/01/16 03:19:33;;;;;;;3.55;1.13;;;;;;;-1.70;100.00;99761.31;5070936;28;20076;-72
2024/01/16 03:22:00;;;;;;;4.72;1.33;;;;;;;-1.58;100.00;99754.44;5075700;28;20082;-72
2024/01/16 03:24:26;;;;;;;3.15;1.40;;;;;;;-1.60;100.00;99755.31;5083444;28;20055;-71
2024/01/16 03:26:53;;;;;;;2.95;1.40;;;;;;;-1.67;100.00;99748.50;5082904;28;20494;-71
2024/01/16 03:29:20;;;;;;;2.40;1.17;;;;;;;-1.71;100.00;99745.06;5079974;28;20151;-71
2024/01/16 03:31:47;;;;;;;4.20;1.40;;;;;;;-1.67;100.00;99745.91;5074509;28;20148;-71
2024/01/16 03:34:14;;;;;;;2.85;1.40;;;;;;;-1.82;100.00;99752.81;5062165;28;20056;-71
2024/01/16 03:36:41;;;;;;;6.20;1.73;;;;;;;-1.68;100.00;99754.47;5073956;28;20079;-71
2024/01/16 03:39:08;;;;;;;4.10;1.35;;;;;;;-1.77;100.00;99745.09;5072438;28;20041;-71
2024/01/16 03:41:35;;;;;;;2.17;1.20;;;;;;;-1.86;100.00;99739.97;5083674;28;20056;-71
2024/01/16 03:44:02;;;;;;;2.40;1.30;;;;;;;-1.91;100.00;99735.72;5080294;28;20102;-72
2024/01/16 03:46:29;;;;;;;3.08;1.20;;;;;;;-1.85;100.00;99729.72;5064730;28;20071;-71
2024/01/16 03:48:55;;;;;;;2.28;1.30;;;;;;;-1.87;100.00;99731.44;5077337;28;20457;-72
2024/01/16 03:51:22;;;;;;;4.03;1.20;;;;;;;-1.75;100.00;99725.44;5075917;28;20114;-71
2024/01/16 03:53:49;;;;;;;2.97;1.40;;;;;;;-1.88;100.00;99713.47;5074735;28;20139;-72
2024/01/16 03:56:16;;;;;;;3.55;1.48;;;;;;;-1.84;100.00;99712.59;5069531;28;20137;-71
2024/01/16 03:58:43;;;;;;;1.95;1.10;;;;;;;-1.84;100.00;99710.91;5071523;28;20414;-72
2024/01/16 04:01:10;;;;;;;4.03;1.40;;;;;;;-1.78;100.00;99710.88;5071955;28;20063;-71
2024/01/16 04:03:38;;;;;;;3.63;1.30;;;;;;;-1.76;100.00;99709.16;5055922;28;20057;-71
2024/01/16 04:06:15;;;;;;;3.53;1.30;;;;;;;-1.83;100.00;99696.38;5066250;28;20056;-71
2024/01/16 04:08:42;;;;;;;3.75;1.30;;;;;;;-1.85;100.00;99695.53;5078812;28;20511;-72
2024/01/16 04:11:13;;;;;;;2.85;1.20;;;;;;;-1.87;100.00;99686.97;5070960;28;20044;-72
2024/01/16 04:13:40;;;;;;;3.75;1.25;;;;;;;-1.80;100.00;99694.63;5075812;28;20044;-71
2024/01/16 04:16:07;;;;;;;3.25;1.20;;;;;;;-1.74;100.00;99686.91;5070159;28;20056;-71
2024/01/16 04:18:39;;;;;;;3.28;1.45;;;;;;;-1.82;100.00;99675.00;5079697;28;20051;-71
2024/01/16 04:21:06;;;;;;;3.58;1.20;;;;;;;-1.66;100.00;99666.34;5069395;28;20127;-71
2024/01/16 04:23:33;;;;;;;1.98;1.17;;;;;;;-1.72;100.00;99664.66;5079912;28;20044;-72
2024/01/16 04:26:00;;;;;;;2.55;1.30;;;;;;;-1.65;100.00;99660.34;5076326;28;20049;-71
2024/01/16 04:28:27;;;;;;;3.17;1.20;;;;;;;-1.61;100.00;99656.03;5080178;28;20055;-71
2024/01/16 04:30:53;;;;;;;2.53;1.27;;;;;;;-1.66;100.00;99645.81;5071032;28;20049;-71
2024/01/16 04:33:20;;;;;;;2.03;1.20;;;;;;;-1.81;100.00;99610.81;5052139;28;20542;-71
2024/01/16 04:35:47;;;;;;;1.85;1.10;;;;;;;-1.59;100.00;99644.06;5071561;28;20101;-72
2024/01/16 04:38:14;;;;;;;4.45;1.40;;;;;;;-1.64;100.00;99632.97;5072226;28;20406;-72
2024/01/16 04:40:40;;;;;;;2.08;1.20;;;;;;;-1.66;100.00;99622.72;5070619;28;20052;-71
2024/01/16 04:43:07;;;;;;;2.70;1.30;;;;;;;-1.58;100.00;99628.63;5072416;28;20147;-71
2024/01/16 04:45:34;;;;;;;1.95;1.20;;;;;;;-1.68;100.00;99621.00;5086313;28;20052;-72
2024/01/16 04:48:00;;;;;;;1.95;1.20;;;;;;;-1.68;100.00;99626.13;5076775;28;20143;-72
2024/01/16 04:50:31;;;;;;;2.70;1.30;;;;;;;-1.73;100.00;99603.94;5056092;28;20078;-72
2024/01/16 04:53:01;;;;;;;2.75;1.23;;;;;;;-1.60;100.00;99614.13;5080429;28;20496;-72
2024/01/16 04:55:29;;;;;;;3.72;1.30;;;;;;;-1.56;100.00;99620.94;5072279;28;20062;-71
2024/01/16 04:57:56;;;;;;;2.20;1.20;;;;;;;-1.63;100.00;99594.47;5077236;28;20052;-71
2024/01/16 05:00:23;;;;;;;7.15;1.60;;;;;;;-1.64;100.00;99592.75;5068812;28;20044;-72
2024/01/16 05:02:51;;;;;;;1.98;1.10;;;;;;;-1.59;100.00;99598.72;5070531;28;20382;-72
2024/01/16 05:05:18;;;;;;;2.83;1.17;;;;;;;-1.81;100.00;99595.41;5073473;28;20320;-71
2024/01/16 05:07:45;;;;;;;6.60;1.40;;;;;;;-1.73;100.00;99596.22;5084452;28;20079;-71
2024/01/16 05:10:12;;;;;;;2.15;1.20;;;;;;;-1.84;100.00;99582.63;5079060;28;20056;-72
2024/01/16 05:12:40;;;;;;;3.97;1.25;;;;;;;-1.73;100.00;99587.69;5070127;28;20063;-71
2024/01/16 05:15:07;;;;;;;4.10;1.40;;;;;;;-1.89;100.00;99581.78;5076451;28;20516;-71
2024/01/16 05:17:34;;;;;;;2.35;1.20;;;;;;;-1.85;100.00;99580.91;5070381;28;20057;-72
2024/01/16 05:20:04;;;;;;;2.83;1.20;;;;;;;-1.80;100.00;99584.28;5068989;28;20048;-71
2024/01/16 05:22:30;;;;;;;3.58;1.30;;;;;;;-1.91;100.00;99578.38;5078798;28;20063;-71
2024/01/16 05:24:59;;;;;;;2.53;1.13;;;;;;;-2.17;100.00;99561.38;5070392;28;21091;-71
2024/01/16 05:27:25;;;;;;;2.70;1.30;;;;;;;-2.05;100.00;99563.06;5074865;28;20052;-71
2024/01/16 05:29:52;;;;;;;2.33;1.20;;;;;;;-2.00;100.00;99574.16;5073203;28;20121;-71
2024/01/16 05:32:19;;;;;;;4.38;1.38;;;;;;;-2.00;100.00;99561.31;5079056;28;20149;-71
2024/01/16 05:34:46;;;;;;;7.97;1.70;;;;;;;-1.94;100.00;99556.13;5053172;28;20049;-71
2024/01/16 05:37:12;;;;;;;3.55;1.38;;;;;;;-2.06;100.00;99550.22;5060460;28;20055;-72
2024/01/16 05:39:39;;;;;;;3.80;1.30;;;;;;;-2.06;100.00;99555.38;5065388;28;20049;-71
2024/01/16 05:42:06;;;;;;;2.15;1.15;;;;;;;-2.12;100.00;99536.56;5056152;28;20059;-72
2024/01/16 05:44:33;;;;;;;3.10;1.30;;;;;;;-2.05;100.00;99541.66;5068420;28;20063;-72
2024/01/16 05:47:00;;;;;;;3.03;1.30;;;;;;;-2.12;100.00;99540.88;5072029;28;20040;-71
2024/01/16 05:49:27;;;;;;;2.90;1.40;;;;;;;-2.03;100.00;99534.84;5080263;28;20398;-71
2024/01/16 05:51:53;;;;;;;2.50;1.30;;;;;;;-2.08;100.00;99523.75;5076936;28;20502;-72
2024/01/16 05:54:20;;;;;;;4.80;1.50;;;;;;;-2.08;100.00;99534.00;5074938;28;20052;-71
2024/01/16 05:56:47;;;;;;;3.42;1.40;;;;;;;-2.11;100.00;99517.78;5064364;28;20056;-72
2024/01/16 05:59:13;;;;;;;4.28;1.63;;;;;;;-2.02;100.00;99516.00;5081889;28;20156;-71
2024/01/16 06:01:40;;;;;;;2.38;1.65;;;;;;;-2.08;100.00;99503.22;5061554;28;20048;-72
2024/01/16 06:04:07;;;;;;;3.97;1.45;;;;;;;-2.08;100.00;99495.53;5069333;28;20055;-72
2024/01/16 06:06:34;;;;;;;2.40;1.10;;;;;;;-2.02;100.00;99498.03;5072529;28;20060;-71
2024/01/16 06:09:05;;;;;;;4.35;1.40;;;;;;;-1.98;100.00;99503.16;5068432;28;20054;-72
2024/01/16 06:11:32;;;;;;;3.72;1.13;;;;;;;-2.05;100.00;99478.41;5058729;28;20509;-72
2024/01/16 06:13:59;;;;;;;3.65;1.30;;;;;;;-2.05;100.00;99475.84;5069521;28;20172;-71
2024/01/16 06:16:26;;;;;;;4.85;1.15;;;;;;;-1.92;100.00;99492.00;5068047;28;20059;-72
2024/01/16 06:18:53;;;;;;;2.20;1.20;;;;;;;-1.97;100.00;99479.19;5072371;28;20095;-72
2024/01/16 06:21:20;;;;;;;10.65;3.95;;;;;;;-1.90;100.00;99485.13;5075200;28;20382;-71
2024/01/16 06:23:50;;;;;;;2.95;1.30;;;;;;;-1.82;100.00;99479.97;5074086;28;20072;-71
2024/01/16 06:26:17;;;;;;;3.08;1.50;;;;;;;-1.95;100.00;99474.06;5067522;28;20044;-72
2024/01/16 06:28:44;;;;;;;4.38;1.30;;;;;;;-1.91;100.00;99468.91;5067944;28;20132;-72
2024/01/16 06:31:11;;;;;;;2.08;1.20;;;;;;;-1.84;100.00;99467.16;5072170;28;20055;-72
2024/01/16 06:33:38;;;;;;;4.55;1.58;;;;;;;-1.94;100.00;99450.97;5067854;28;20056;-71
2024/01/16 06:36:05;;;;;;;3.55;1.40;;;;;;;-1.74;100.00;99478.19;5069678;28;20072;-71
2024/01/16 06:38:32;;;;;;;2.83;1.52;;;;;;;-1.92;100.00;99438.13;5063587;28;20056;-72
2024/01/16 06:40:59;;;;;;;2.50;1.25;;;;;;;-1.81;100.00;99464.53;5059368;28;20048;-71
2024/01/16 06:43:25;;;;;;;2.10;1.10;;;;;;;-1.76;100.00;99467.91;5065067;28;20482;-72
2024/01/16 06:45:53;;;;;;;2.42;1.35;;;;;;;-1.66;100.00;99455.03;5061221;28;20056;-71
2024/01/16 06:48:19;;;;;;;3.00;1.30;;;;;;;-1.65;100.00;99449.88;5059967;28;20044;-71
2024/01/16 06:50:46;;;;;;;3.00;1.30;;;;;;;-1.56;100.00;99433.53;5061789;28;20147;-71
2024/01/16 06:53:13;;;;;;;2.60;1.35;;;;;;;-1.55;100.00;99427.56;5069507;28;20076;-72
2024/01/16 06:55:42;;;;;;;4.93;2.03;;;;;;;-1.58;100.00;99417.31;5056157;28;20155;-71
2024/01/16 06:58:10;;;;;;;1.85;1.13;;;;;;;-1.44;100.00;99432.59;5048873;28;20064;-72
2024/01/16 07:00:36;;;;;;;3.35;1.15;;;;;;;-1.46;100.00;99424.88;5075765;28;20086;-72
2024/01/16 07:03:04;;;;;;;1.20;1.00;;;;;;;-1.46;100.00;99421.47;5067532;28;20056;-71
2024/01/16 07:05:30;;;;;;;4.28;1.38;;;;;;;-1.49;100.00;99421.50;5052072;28;20056;-72
2024/01/16 07:07:58;;;;;;;3.03;1.40;;;;;;;-1.61;100.00;99431.03;5067971;28;20294;-71
2024/01/16 07:10:24;;;;;;;1.90;1.10;;;;;;;-1.64;100.00;99415.66;5064471;28;20044;-71
2024/01/16 07:12:51;;;;;;;3.50;1.20;;;;;;;-1.61;100.00;99423.34;5063184;28;20053;-71
2024/01/16 07:15:18;;;;;;;2.72;1.33;;;;;;;-1.86;100.00;99415.00;5061469;28;20387;-71
2024/01/16 07:17:45;;;;;;;2.40;1.30;;;;;;;-1.83;100.00;99419.25;5052551;28;20089;-72
2024/01/16 07:20:12;;;;;;;7.43;1.30;;;;;;;-1.83;100.00;99425.22;5053733;28;20044;-71
2024/01/16 07:22:40;;;;;;;5.68;1.65;;;;;;;-1.91;100.00;99424.44;5059286;28;20052;-71
2024/01/16 07:25:07;;;;;;;3.00;1.20;;;;;;;-1.96;100.00;99411.63;5067426;28;20056;-71
2024/01/16 07:27:35;;;;;;;3.05;1.30;;;;;;;-1.93;100.00;99410.75;5061447;28;20048;-71
2024/01/16 07:30:04;;;;;;;2.95;1.20;;;;;;;-1.78;100.00;99402.94;5059717;28;20463;-71
2024/01/16 07:32:31;;;;;;;2.85;1.30;;;;;;;-1.57;100.00;99391.63;5073391;28;20143;-71
2024/01/16 07:34:59;;;;;;;5.22;1.30;;;;;;;-1.61;100.00;99389.97;5074211;28;20066;-71
2024/01/16 07:37:25;;;;;;;3.38;1.30;;;;;;;-1.67;100.00;99384.03;5055775;28;20068;-71
2024/01/16 07:39:52;;;;;;;3.97;1.35;;;;;;;-1.58;100.00;99374.50;5060823;28;20041;-71
2024/01/16 07:42:18;;;;;;;3.65;1.10;;;;;;;-1.64;100.00;99377.16;5056167;28;20044;-71
2024/01/16 07:44:45;;;;;;;2.70;1.30;;;;;;;-1.56;100.00;99375.38;5065614;28;20060;-71
2024/01/16 07:47:12;;;;;;;2.70;1.23;;;;;;;-1.62;100.00;99370.28;5071846;28;20052;-71
2024/01/16 07:49:39;;;;;;;1.67;1.25;;;;;;;-1.55;100.00;99366.78;5069390;28;20075;-72
2024/01/16 07:52:06;;;;;;;4.00;1.50;;;;;;;-1.76;100.00;99365.28;5062463;28;20048;-72
2024/01/16 07:54:33;;;;;;;3.47;1.35;;;;;;;-1.68;100.00;99342.13;5053456;28;20059;-72
2024/01/16 07:56:59;;;;;;;4.60;1.33;;;;;;;-1.61;100.00;99358.28;5065687;28;20044;-72
2024/01/16 07:59:26;;;;;;;6.68;1.80;;;;;;;-1.48;100.00;99359.03;5057473;28;20427;-72
2024/01/16 08:01:53;;;;;;;3.10;1.20;;;;;;;-1.44;100.00;99355.56;5064260;28;20048;-72
2024/01/16 08:04:20;;;;;;;3.35;1.50;;;;;;;-1.18;100.00;99350.13;5069463;28;20055;-72
2024/01/16 08:06:47;;;;;;;4.93;1.30;;;;;;;-1.03;100.00;99338.81;5059205;28;20048;-72
2024/01/16 08:09:14;;;;;;;4.75;1.40;;;;;;;-1.31;100.00;99356.25;5055142;28;20110;-72
2024/01/16 08:11:40;;;;;;;4.65;1.67;;;;;;;-1.42;100.00;99349.53;5060349;28;20049;-72
2024/01/16 08:14:08;;;;;;;4.80;1.40;;;;;;;-1.60;100.00;99334.34;5066532;28;20053;-73
2024/01/16 08:16:35;;;;;;;4.57;1.27;;;;;;;-1.36;100.00;99346.91;5069107;28;20479;-72
2024/01/16 08:19:03;;;;;;;2.25;1.10;;;;;;;-1.35;100.00;99350.31;5060760;28;20076;-72
2024/01/16 08:21:30;;;;;;;3.40;1.20;;;;;;;-1.34;100.00;99352.88;5067702;28;20040;-72
2024/01/16 08:23:57;;;;;;;30.55;27.52;;;;;;;-1.41;100.00;99346.09;5058009;28;20049;-73
2024/01/16 08:26:24;;;;;;;9.82;6.82;;;;;;;-1.19;100.00;99346.72;5057549;28;20498;-73
2024/01/16 08:28:51;;;;;;;5.45;2.72;;;;;;;-1.20;100.00;99351.88;5070221;28;20080;-73
2024/01/16 08:31:21;;;;;;;5.05;2.45;;;;;;;-1.26;100.00;99341.66;5061278;28;20547;-72
2024/01/16 08:33:48;;;;;;;4.05;1.90;;;;;;;-1.05;100.00;99346.53;5070522;28;20094;-72
2024/01/16 08:36:18;;;;;;;2.85;1.75;;;;;;;-1.12;100.00;99342.34;5067762;28;20048;-72
2024/01/16 08:38:45;;;;;;;3.65;1.70;;;;;;;-1.01;100.00;99332.78;5070459;28;20384;-73
2024/01/16 08:41:12;;;;;;;3.92;1.50;;;;;;;-1.07;100.00;99330.28;5067992;28;20048;-72
2024/01/16 08:43:39;;;;;;;4.32;1.40;;;;;;;-0.99;100.00;99333.63;5071183;28;20049;-72
2024/01/16 08:46:06;;;;;;;2.22;1.30;;;;;;;-1.08;100.00;99327.72;5070512;28;20059;-72
2024/01/16 08:48:33;;;;;;;3.28;1.65;;;;;;;-1.20;100.00;99313.34;5067515;28;20528;-72
2024/01/16 08:51:00;;;;;;;4.10;1.40;;;;;;;-1.32;100.00;99314.34;5069790;28;20080;-72
2024/01/16 08:53:30;;;;;;;2.58;1.20;;;;;;;-1.18;100.00;99312.44;5069869;28;20060;-72
2024/01/16 08:55:57;;;;;;;4.95;1.58;;;;;;;-1.21;100.00;99312.47;5070077;28;20485;-72
2024/01/16 08:58:24;;;;;;;6.95;1.38;;;;;;;-1.18;100.00;99306.47;5068927;28;20406;-71
2024/01/16 09:00:51;;;;;;;3.30;1.50;;;;;;;-1.20;100.00;99296.22;5070201;28;20048;-72
2024/01/16 09:03:18;;;;;;;2.40;1.20;;;;;;;-1.04;100.00;99302.00;5071103;28;20127;-72
2024/01/16 09:05:45;;;;;;;2.38;1.30;;;;;;;-0.96;100.00;99301.88;5064829;28;20061;-72
2024/01/16 09:08:12;;;;;;;2.40;1.20;;;;;;;-1.00;100.00;99298.50;5061489;28;20441;-72
2024/01/16 09:10:39;;;;;;;5.07;1.40;;;;;;;-0.88;100.00;99299.22;5071079;28;20098;-72
2024/01/16 09:13:07;;;;;;;3.88;1.42;;;;;;;-0.90;100.00;99290.66;5071490;28;20062;-71
2024/01/16 09:15:34;;;;;;;5.30;1.33;;;;;;;-0.77;100.00;99289.63;5070292;28;20052;-72
2024/01/16 09:18:01;;;;;;;2.80;1.33;;;;;;;-0.72;100.00;99277.56;5068958;28;20131;-71
2024/01/16 09:20:28;;;;;;;4.43;1.52;;;;;;;-1.09;100.00;99239.56;5069635;28;20398;-72
2024/01/16 09:22:55;;;;;;;4.03;1.50;;;;;;;-0.92;100.00;99277.00;5070261;28;20044;-72
2024/01/16 09:25:24;;;;;;;4.25;1.42;;;;;;;-1.03;100.00;99267.72;5070589;28;20229;-72
2024/01/16 09:27:51;;;;;;;5.03;1.98;;;;;;;-1.20;100.00;99261.97;5064758;28;20501;-72
2024/01/16 09:30:18;;;;;;;7.40;1.40;;;;;;;-1.17;100.00;99273.06;5069864;28;20052;-72
2024/01/16 09:32:45;;;;;;;6.07;1.50;;;;;;;-1.16;100.00;99272.16;5057357;28;20127;-72
2024/01/16 09:35:12;;;;;;;6.32;1.63;;;;;;;-1.08;100.00;99269.53;5070547;28;20079;-72
2024/01/16 09:37:39;;;;;;;5.43;1.65;;;;;;;-1.11;100.00;99255.88;5063074;28;20049;-71
2024/01/16 09:40:07;;;;;;;3.97;1.50;;;;;;;-1.07;100.00;99244.66;5069000;28;20092;-72
2024/01/16 09:42:34;;;;;;;4.32;1.52;;;;;;;-0.99;100.00;99253.97;5058627;28;20407;-72
2024/01/16 09:45:02;;;;;;;2.75;1.50;;;;;;;-0.74;100.00;99257.88;5065947;28;20134;-72
2024/01/16 09:47:34;;;;;;;5.22;1.80;;;;;;;-0.67;100.00;99246.66;5069611;28;20409;-71
2024/01/16 09:50:02;;;;;;;4.20;1.52;;;;;;;-0.56;100.00;99243.91;5068984;28;20048;-71
2024/01/16 09:52:30;;;;;;;2.97;1.20;;;;;;;-0.47;100.00;99239.47;5070266;28;20103;-72
2024/01/16 09:54:56;;;;;;;1.83;1.17;;;;;;;-0.36;100.00;99233.28;5069773;28;20445;-72
2024/01/16 09:57:25;;;;;;;2.58;1.30;;;;;;;-0.43;100.00;99210.22;5069169;28;20147;-72
2024/01/16 09:59:52;;;;;;;2.58;1.30;;;;;;;-0.32;100.00;99219.50;5069754;28;20060;-72
2024/01/16 10:02:23;;;;;;;2.97;1.30;;;;;;;-0.17;100.00;99216.66;5070185;28;20055;-72
2024/01/16 10:04:49;;;;;;;3.58;1.40;;;;;;;-0.39;100.00;99214.47;5064784;28;20572;-73
2024/01/16 10:07:18;;;;;;;3.97;1.63;;;;;;;-0.56;100.00;99218.22;5068323;28;20048;-72
2024/01/16 10:09:44;;;;;;;4.30;1.60;;;;;;;-0.61;100.00;99200.28;5069561;28;20048;-72
2024/01/16 10:12:11;;;;;;;5.97;2.15;;;;;;;-0.54;100.00;99224.16;5069953;28;20049;-72
2024/01/16 10:14:38;;;;;;;5.65;1.80;;;;;;;-0.46;100.00;99212.00;5062512;28;20318;-72
2024/01/16 10:17:05;;;;;;;7.25;2.10;;;;;;;-0.47;100.00;99203.47;5064091;28;20084;-72
2024/01/16 10:19:33;;;;;;;6.00;1.85;;;;;;;-0.41;100.00;99208.50;5063292;28;20099;-72
2024/01/16 10:22:20;;;;;;;4.93;1.83;;;;;;;-0.41;100.00;99202.50;5069408;28;20060;-72
2024/01/16 10:25:19;;;;;;;6.10;1.90;;;;;;;-0.32;100.00;99207.50;5058156;28;20080;-71
2024/01/16 10:27:47;;;;;;;4.03;1.63;;;;;;;-0.35;100.00;99201.53;5054134;28;20090;-72
2024/01/16 10:30:13;;;;;;;8.55;2.55;;;;;;;-0.47;100.00;99175.16;5069891;28;20494;-72
2024/01/16 10:32:41;;;;;;;13.48;5.13;;;;;;;-0.68;100.00;99211.53;5068503;28;20056;-72
2024/01/16 10:35:12;;;;;;;13.63;5.75;;;;;;;-0.84;100.00;99203.22;5070240;28;20059;-72
2024/01/16 10:37:48;;;;;;;11.70;4.80;;;;;;;-0.94;100.00;99204.22;5070515;28;20135;-72
2024/01/16 10:40:29;;;;;;;12.63;5.55;;;;;;;-1.04;100.00;99198.41;5063646;28;20041;-71
2024/01/16 10:43:03;;;;;;;12.70;4.80;;;;;;;-1.08;100.00;99205.31;5063785;28;20055;-72
2024/01/16 10:45:33;;;;;;;10.93;4.30;;;;;;;-1.10;100.00;99195.91;5056461;28;20056;-72
2024/01/16 10:48:07;;;;;;;10.15;4.00;;;;;;;-1.17;100.00;99190.88;5069114;28;20071;-72
2024/01/16 10:50:38;;;;;;;10.57;3.30;;;;;;;-0.94;100.00;99196.53;5055348;28;20063;-72
2024/01/16 10:53:06;;;;;;;11.82;3.92;;;;;;;-1.17;100.00;99177.16;5069535;28;20048;-72
2024/01/16 10:55:52;;;;;;;10.98;3.45;;;;;;;-0.95;100.00;99187.97;5068814;28;20080;-71
2024/01/16 10:58:23;;;;;;;11.85;4.40;;;;;;;-1.05;100.00;99182.13;5058702;28;20421;-72
2024/01/16 11:00:53;;;;;;;10.40;3.60;;;;;;;-0.81;100.00;99180.88;5053010;28;20491;-72
2024/01/16 11:03:35;;;;;;;10.13;3.38;;;;;;;-0.80;100.00;99174.03;5069889;28;20044;-72
2024/01/16 11:06:07;;;;;;;14.07;3.65;;;;;;;-0.64;100.00;99164.34;5058958;28;20074;-72
2024/01/16 11:08:38;;;;;;;9.68;3.13;;;;;;;-0.43;100.00;99161.38;5071809;28;20378;-73
2024/01/16 11:11:07;;;;;;;7.22;2.80;;;;;;;-0.29;100.00;99142.28;5073401;28;20059;-73
2024/01/16 11:13:35;;;;;;;7.05;2.42;;;;;;;-0.21;100.00;99151.56;5073266;28;20052;-71
2024/01/16 11:16:07;;;;;;;12.35;2.75;;;;;;;-0.20;100.00;99145.50;5067009;28;20080;-71
2024/01/16 11:18:37;;;;;;;7.93;2.30;;;;;;;-0.24;100.00;99141.31;5064352;28;20413;-70
2024/01/16 11:21:07;;;;;;;5.45;1.90;;;;;;;-0.14;100.00;99136.00;5073313;28;20044;-71
2024/01/16 11:23:39;;;;;;;7.72;2.20;;;;;;;-0.02;100.00;99117.72;5073111;28;20231;-73
2024/01/16 11:26:27;;;;;;;8.40;2.45;;;;;;;-0.16;100.00;99110.31;5072701;28;20044;-72